createdAt,value
2022-08-02T00:01:06.298Z,-83
2022-08-02T00:03:34.795Z,-83
2022-08-02T00:06:04.183Z,-83
2022-08-02T00:08:33.445Z,-83
2022-08-02T00:11:02.006Z,-83
2022-08-02T00:13:35.853Z,-84
2022-08-02T00:16:05.094Z,-83
2022-08-02T00:18:33.628Z,-83
2022-08-02T00:21:02.128Z,-84
2022-08-02T00:23:32.533Z,-84
2022-08-02T00:26:21.036Z,-83
2022-08-02T00:28:51.132Z,-82
2022-08-02T00:31:19.628Z,-82
2022-08-02T00:34:26.255Z,-83
2022-08-02T00:36:36.924Z,-81
2022-08-02T00:39:05.652Z,-83
2022-08-02T00:41:55.578Z,-83
2022-08-02T00:44:26.086Z,-83
2022-08-02T00:46:54.592Z,-83
2022-08-02T00:49:23.280Z,-82
2022-08-02T00:51:53.289Z,-82
2022-08-02T00:54:23.309Z,-83
2022-08-02T00:56:51.857Z,-82
2022-08-02T00:59:20.347Z,-82
2022-08-02T01:01:56.914Z,-82
2022-08-02T01:04:31.283Z,-82
2022-08-02T01:07:01.748Z,-81
2022-08-02T01:09:30.238Z,-82
2022-08-02T01:11:59.052Z,-82
2022-08-02T01:14:31.919Z,-82
2022-08-02T01:17:09.932Z,-82
2022-08-02T01:19:52.670Z,-82
2022-08-02T01:23:03.232Z,-81
2022-08-02T01:25:58.310Z,-81
2022-08-02T01:28:38.951Z,-82
2022-08-02T01:31:17.926Z,-82
2022-08-02T01:33:54.557Z,-83
2022-08-02T01:36:27.477Z,-81
2022-08-02T01:38:57.810Z,-81
2022-08-02T01:41:29.755Z,-82
2022-08-02T01:44:02.400Z,-82
2022-08-02T01:46:35.857Z,-82
2022-08-02T01:49:11.014Z,-82
2022-08-02T01:52:00.122Z,-82
2022-08-02T01:54:33.588Z,-82
2022-08-02T01:57:05.152Z,-81
2022-08-02T01:59:37.273Z,-82
2022-08-02T02:02:10.334Z,-82
2022-08-02T02:04:40.302Z,-82
2022-08-02T02:07:10.441Z,-81
2022-08-02T02:09:49.258Z,-82
2022-08-02T02:12:20.873Z,-82
2022-08-02T02:14:52.312Z,-82
2022-08-02T02:17:50.660Z,-81
2022-08-02T02:20:16.541Z,-82
2022-08-02T02:22:45.916Z,-81
2022-08-02T02:25:36.098Z,-82
2022-08-02T02:28:16.411Z,-82
2022-08-02T02:30:53.427Z,-82
2022-08-02T02:33:29.058Z,-81
2022-08-02T02:36:01.721Z,-82
2022-08-02T02:38:33.492Z,-82
2022-08-02T02:41:05.372Z,-82
2022-08-02T02:43:39.304Z,-82
2022-08-02T02:46:11.931Z,-82
2022-08-02T02:48:42.148Z,-83
2022-08-02T02:51:14.109Z,-82
2022-08-02T02:54:29.791Z,-82
2022-08-02T02:56:36.992Z,-82
2022-08-02T02:59:05.936Z,-82
2022-08-02T03:01:56.685Z,-82
2022-08-02T03:04:55.957Z,-82
2022-08-02T03:07:18.162Z,-82
2022-08-02T03:09:47.982Z,-82
2022-08-02T03:12:30.853Z,-82
2022-08-02T03:15:02.464Z,-82
2022-08-02T03:17:42.833Z,-82
2022-08-02T03:20:16.013Z,-81
2022-08-02T03:22:48.457Z,-81
2022-08-02T03:25:19.204Z,-81
2022-08-02T03:27:48.148Z,-82
2022-08-02T03:30:16.843Z,-81
2022-08-02T03:32:49.508Z,-82
2022-08-02T03:35:24.208Z,-81
2022-08-02T03:37:56.987Z,-81
2022-08-02T03:40:26.635Z,-82
2022-08-02T03:42:56.024Z,-81
2022-08-02T03:45:26.897Z,-82
2022-08-02T03:47:58.749Z,-81
2022-08-02T03:50:29.519Z,-82
2022-08-02T03:52:59.332Z,-81
2022-08-02T03:55:27.957Z,-80
2022-08-02T03:57:56.551Z,-81
2022-08-02T04:00:25.448Z,-81
2022-08-02T04:02:54.499Z,-80
2022-08-02T04:05:25.223Z,-80
2022-08-02T04:08:34.975Z,-82
2022-08-02T04:10:59.627Z,-81
2022-08-02T04:13:35.928Z,-81
2022-08-02T04:16:11.780Z,-81
2022-08-02T04:18:47.674Z,-81
2022-08-02T04:21:21.921Z,-80
2022-08-02T04:23:52.917Z,-81
2022-08-02T04:26:28.308Z,-81
2022-08-02T04:28:58.864Z,-81
2022-08-02T04:31:28.044Z,-81
2022-08-02T04:33:56.980Z,-82
2022-08-02T04:36:31.546Z,-83
2022-08-02T04:39:00.698Z,-81
2022-08-02T04:41:43.669Z,-80
2022-08-02T04:44:13.256Z,-83
2022-08-02T04:46:43.812Z,-82
2022-08-02T04:49:12.670Z,-82
2022-08-02T04:51:44.877Z,-82
2022-08-02T04:54:14.033Z,-82
2022-08-02T04:56:42.926Z,-82
2022-08-02T04:59:12.468Z,-82
2022-08-02T05:01:42.530Z,-82
2022-08-02T05:04:11.292Z,-82
2022-08-02T05:06:41.175Z,-81
2022-08-02T05:09:09.806Z,-81
2022-08-02T05:11:38.339Z,-82
2022-08-02T05:14:07.437Z,-82
2022-08-02T05:16:35.890Z,-82
2022-08-02T05:19:04.483Z,-81
2022-08-02T05:21:33.100Z,-82
2022-08-02T05:24:03.092Z,-82
2022-08-02T05:26:31.580Z,-82
2022-08-02T05:29:00.045Z,-82
2022-08-02T05:31:28.521Z,-82
2022-08-02T05:33:56.978Z,-82
2022-08-02T05:36:25.470Z,-82
2022-08-02T05:38:59.547Z,-83
2022-08-02T05:41:29.990Z,-82
2022-08-02T05:43:58.602Z,-82
2022-08-02T05:46:27.115Z,-83
2022-08-02T05:48:55.607Z,-82
2022-08-02T05:51:30.536Z,-82
2022-08-02T05:54:13.958Z,-82
2022-08-02T05:56:52.769Z,-82
2022-08-02T05:59:33.842Z,-82
2022-08-02T06:02:14.434Z,-82
2022-08-02T06:05:00.621Z,-82
2022-08-02T06:07:31.082Z,-82
2022-08-02T06:10:00.722Z,-83
2022-08-02T06:12:34.031Z,-83
2022-08-02T06:15:04.894Z,-83
2022-08-02T06:17:35.287Z,-83
2022-08-02T06:20:13.636Z,-82
2022-08-02T06:22:44.954Z,-83
2022-08-02T06:25:50.227Z,-82
2022-08-02T06:28:10.161Z,-82
2022-08-02T06:30:41.043Z,-85
2022-08-02T06:33:09.536Z,-82
2022-08-02T06:35:47.033Z,-82
2022-08-02T06:38:23.325Z,-83
2022-08-02T06:41:04.321Z,-82
2022-08-02T06:43:46.248Z,-82
2022-08-02T06:46:57.422Z,-83
2022-08-02T06:49:04.381Z,-83
2022-08-02T06:51:34.210Z,-82
2022-08-02T06:54:02.838Z,-83
2022-08-02T06:56:31.525Z,-81
2022-08-02T06:59:05.846Z,-82
2022-08-02T07:01:38.542Z,-81
2022-08-02T07:04:07.905Z,-81
2022-08-02T07:06:36.886Z,-80
2022-08-02T07:09:22.043Z,-81
2022-08-02T07:11:50.744Z,-80
2022-08-02T07:14:20.597Z,-81
2022-08-02T07:16:49.213Z,-81
2022-08-02T07:19:17.673Z,-82
2022-08-02T07:21:56.980Z,-82
2022-08-02T07:24:27.958Z,-83
2022-08-02T07:27:10.428Z,-82
2022-08-02T07:29:46.776Z,-82
2022-08-02T07:32:17.060Z,-83
2022-08-02T07:34:50.419Z,-82
2022-08-02T07:37:35.992Z,-82
2022-08-02T07:40:13.977Z,-81
2022-08-02T07:42:44.246Z,-82
2022-08-02T07:45:15.592Z,-83
2022-08-02T07:47:45.705Z,-83
2022-08-02T07:50:18.072Z,-82
2022-08-02T07:52:47.432Z,-83
2022-08-02T07:55:18.062Z,-83
2022-08-02T07:57:47.529Z,-82
2022-08-02T08:00:18.779Z,-82
2022-08-02T08:02:47.842Z,-83
2022-08-02T08:05:17.004Z,-83
2022-08-02T08:07:45.602Z,-82
2022-08-02T08:10:14.193Z,-83
2022-08-02T08:12:42.867Z,-84
2022-08-02T08:15:12.249Z,-84
2022-08-02T08:17:42.161Z,-84
2022-08-02T08:20:15.621Z,-83
2022-08-02T08:22:44.515Z,-83
2022-08-02T08:25:13.105Z,-83
2022-08-02T08:27:50.282Z,-83
2022-08-02T08:30:19.198Z,-83
2022-08-02T08:32:49.176Z,-81
2022-08-02T08:49:00.709Z,-90
2022-08-02T08:51:37.151Z,-89
2022-08-02T08:54:08.392Z,-90
2022-08-02T08:56:37.943Z,-89
2022-08-02T08:59:07.059Z,-89
2022-08-02T09:01:50.059Z,-90
2022-08-02T09:04:21.019Z,-89
2022-08-02T09:06:49.956Z,-89
2022-08-02T09:09:18.657Z,-88
2022-08-02T09:11:47.238Z,-88
2022-08-02T09:14:29.398Z,-89
2022-08-02T09:17:12.316Z,-89
2022-08-02T09:19:46.062Z,-91
2022-08-02T09:22:16.472Z,-89
2022-08-02T09:24:59.279Z,-92
2022-08-02T09:28:15.276Z,-93
2022-08-02T09:30:45.801Z,-91
2022-08-02T09:33:18.092Z,-91
2022-08-02T09:36:06.769Z,-91
2022-08-02T09:38:38.073Z,-89
2022-08-02T09:41:20.600Z,-88
2022-08-02T09:43:52.406Z,-91
2022-08-02T09:46:37.719Z,-90
2022-08-02T09:49:13.306Z,-92
2022-08-02T09:51:53.138Z,-92
2022-08-02T09:54:25.289Z,-91
2022-08-02T09:56:58.297Z,-84
2022-08-02T09:59:29.450Z,-87
2022-08-02T10:02:02.373Z,-83
2022-08-02T10:04:52.077Z,-86
2022-08-02T10:07:24.084Z,-86
2022-08-02T10:09:53.372Z,-83
2022-08-02T10:12:23.173Z,-84
2022-08-02T10:14:52.955Z,-85
2022-08-02T10:17:22.584Z,-83
2022-08-02T10:20:02.491Z,-83
2022-08-02T10:22:36.125Z,-82
2022-08-02T10:25:06.615Z,-82
2022-08-02T10:28:03.880Z,-82
2022-08-02T10:30:30.225Z,-82
2022-08-02T10:33:02.364Z,-82
2022-08-02T10:35:37.537Z,-84
2022-08-02T10:38:12.067Z,-83
2022-08-02T10:40:48.788Z,-82
2022-08-02T10:43:46.235Z,-83
2022-08-02T10:46:34.709Z,-84
2022-08-02T10:52:09.836Z,-86
2022-08-02T10:54:42.731Z,-84
2022-08-02T10:57:21.564Z,-87
2022-08-02T10:59:51.975Z,-86
2022-08-02T11:02:43.395Z,-85
2022-08-02T11:05:15.821Z,-85
2022-08-02T11:07:49.312Z,-86
2022-08-02T11:10:47.797Z,-86
2022-08-02T11:13:19.680Z,-82
2022-08-02T11:16:10.716Z,-82
2022-08-02T11:19:07.151Z,-87
2022-08-02T11:21:37.501Z,-87
2022-08-02T11:24:27.487Z,-86
2022-08-02T11:26:58.765Z,-86
2022-08-02T11:29:40.753Z,-85
2022-08-02T11:32:16.307Z,-86
2022-08-02T11:34:47.623Z,-86
2022-08-02T11:37:29.645Z,-85
2022-08-02T11:39:58.113Z,-86
2022-08-02T11:42:35.089Z,-85
2022-08-02T11:45:04.708Z,-86
2022-08-02T11:47:33.555Z,-87
2022-08-02T11:50:10.639Z,-85
2022-08-02T11:52:39.984Z,-86
2022-08-02T11:55:10.489Z,-86
2022-08-02T11:58:04.161Z,-84
2022-08-02T12:00:31.146Z,-84
2022-08-02T12:02:59.772Z,-85
2022-08-02T12:06:03.071Z,-85
2022-08-02T12:08:19.041Z,-85
2022-08-02T12:10:50.858Z,-85
2022-08-02T12:13:20.934Z,-85
2022-08-02T12:15:49.869Z,-86
2022-08-02T12:18:38.327Z,-86
2022-08-02T12:21:23.652Z,-85
2022-08-02T12:23:59.749Z,-84
2022-08-02T12:26:30.277Z,-84
2022-08-02T12:29:01.663Z,-84
2022-08-02T12:31:57.198Z,-85
2022-08-02T12:34:30.068Z,-86
2022-08-02T12:37:08.248Z,-84
2022-08-02T12:39:43.143Z,-85
2022-08-02T12:42:14.987Z,-85
2022-08-02T12:44:55.384Z,-85
2022-08-02T12:47:23.931Z,-85
2022-08-02T12:50:14.348Z,-84
2022-08-02T12:52:42.836Z,-84
2022-08-02T12:55:25.973Z,-85
2022-08-02T12:58:14.543Z,-85
2022-08-02T13:00:55.662Z,-85
2022-08-02T13:04:07.779Z,-84
2022-08-02T13:09:12.565Z,-84
2022-08-02T13:11:42.949Z,-85
2022-08-02T13:14:13.324Z,-85
2022-08-02T13:16:45.951Z,-85
2022-08-02T13:19:16.195Z,-85
2022-08-02T13:22:01.410Z,-85
2022-08-02T13:24:40.570Z,-84
2022-08-02T13:27:21.765Z,-85
2022-08-02T13:29:50.425Z,-85
2022-08-02T13:32:21.260Z,-85
2022-08-02T13:34:50.109Z,-86
2022-08-02T13:37:19.233Z,-86
2022-08-02T13:40:11.784Z,-85
2022-08-02T13:42:37.020Z,-85
2022-08-02T13:45:12.462Z,-85
2022-08-02T13:48:04.609Z,-85
2022-08-02T13:50:34.099Z,-84
2022-08-02T13:53:02.797Z,-85
2022-08-02T13:55:31.392Z,-86
2022-08-02T13:58:00.227Z,-85
2022-08-02T14:00:35.428Z,-85
2022-08-02T14:03:08.351Z,-84
2022-08-02T14:05:48.554Z,-85
2022-08-02T14:08:19.380Z,-85
2022-08-02T14:10:48.717Z,-85
2022-08-02T14:13:17.838Z,-85
2022-08-02T14:15:46.710Z,-85
2022-08-02T14:18:16.874Z,-85
2022-08-02T14:20:46.203Z,-84
2022-08-02T14:23:15.021Z,-84
2022-08-02T14:25:44.161Z,-85
2022-08-02T14:28:12.669Z,-84
2022-08-02T14:30:41.439Z,-84
2022-08-02T14:33:10.553Z,-85
2022-08-02T14:35:40.536Z,-85
2022-08-02T14:38:09.428Z,-85
2022-08-02T14:40:38.116Z,-84
2022-08-02T14:43:06.736Z,-85
2022-08-02T14:45:40.870Z,-85
2022-08-02T14:48:12.460Z,-84
2022-08-02T14:50:42.672Z,-85
2022-08-02T14:53:12.557Z,-85
2022-08-02T14:55:43.494Z,-84
2022-08-02T14:58:12.751Z,-85
2022-08-02T15:00:43.855Z,-86
2022-08-02T15:03:13.563Z,-86
2022-08-02T15:05:43.497Z,-86
2022-08-02T15:08:11.976Z,-85
2022-08-02T15:10:46.739Z,-85
2022-08-02T15:13:15.436Z,-85
2022-08-02T15:15:43.983Z,-85
2022-08-02T15:18:14.554Z,-85
2022-08-02T15:20:56.232Z,-84
2022-08-02T15:23:37.519Z,-84
2022-08-02T15:26:07.289Z,-84
2022-08-02T15:28:37.077Z,-84
2022-08-02T15:31:05.649Z,-84
2022-08-02T15:33:34.286Z,-85
2022-08-02T15:36:05.478Z,-85
2022-08-02T15:38:34.246Z,-84
2022-08-02T15:41:03.298Z,-85
2022-08-02T15:43:32.395Z,-85
2022-08-02T15:46:01.325Z,-83
2022-08-02T15:48:29.770Z,-85
2022-08-02T15:50:58.532Z,-85
2022-08-02T15:53:28.501Z,-84
2022-08-02T15:56:04.315Z,-85
2022-08-02T15:58:33.728Z,-85
2022-08-02T16:01:11.095Z,-85
2022-08-02T16:03:40.202Z,-84
2022-08-02T16:06:08.659Z,-85
2022-08-02T16:08:38.519Z,-85
2022-08-02T16:11:13.754Z,-85
2022-08-02T16:13:53.565Z,-85
2022-08-02T16:16:24.297Z,-85
2022-08-02T16:18:53.230Z,-85
2022-08-02T16:21:22.858Z,-86
2022-08-02T16:23:58.804Z,-84
2022-08-02T16:26:32.181Z,-84
2022-08-02T16:29:02.334Z,-84
2022-08-02T16:31:31.062Z,-84
2022-08-02T16:34:00.054Z,-84
2022-08-02T16:36:29.194Z,-84
2022-08-02T16:38:59.373Z,-84
2022-08-02T16:41:50.489Z,-84
2022-08-02T16:44:17.293Z,-84
2022-08-02T16:46:46.217Z,-84
2022-08-02T16:52:09.529Z,-84
2022-08-02T16:54:39.554Z,-85
2022-08-02T16:57:07.998Z,-84
2022-08-02T16:59:42.752Z,-83
2022-08-02T17:02:17.939Z,-84
2022-08-02T17:04:48.503Z,-86
2022-08-02T17:08:08.628Z,-85
2022-08-02T17:10:09.781Z,-85
2022-08-02T17:12:39.345Z,-85
2022-08-02T17:16:01.027Z,-85
2022-08-02T17:18:00.325Z,-85
2022-08-02T17:20:29.336Z,-84
2022-08-02T17:23:00.571Z,-85
2022-08-02T17:25:32.071Z,-85
2022-08-02T17:28:01.099Z,-85
2022-08-02T17:30:29.856Z,-85
2022-08-02T17:32:59.601Z,-84
2022-08-02T17:35:43.836Z,-84
2022-08-02T17:38:18.231Z,-84
2022-08-02T17:40:57.052Z,-85
2022-08-02T17:43:29.203Z,-84
2022-08-02T17:45:59.812Z,-84
2022-08-02T17:48:54.893Z,-85
2022-08-02T17:52:14.668Z,-84
2022-08-02T17:54:13.739Z,-85
2022-08-02T17:56:43.579Z,-85
2022-08-02T17:59:20.596Z,-86
2022-08-02T18:01:52.900Z,-85
2022-08-02T18:04:27.731Z,-86
2022-08-02T18:07:03.837Z,-85
2022-08-02T18:09:34.685Z,-84
2022-08-02T18:12:04.831Z,-85
2022-08-02T18:14:33.230Z,-85
2022-08-02T18:17:04.732Z,-84
2022-08-02T18:19:53.983Z,-85
2022-08-02T18:22:24.910Z,-85
2022-08-02T18:24:54.986Z,-85
2022-08-02T18:27:24.892Z,-83
2022-08-02T18:30:00.305Z,-84
2022-08-02T18:33:53.965Z,-84
2022-08-02T18:35:23.548Z,-85
2022-08-02T18:37:57.231Z,-84
2022-08-02T18:40:29.504Z,-84
2022-08-02T18:42:59.362Z,-84
2022-08-02T18:46:01.599Z,-84
2022-08-02T18:48:20.408Z,-84
2022-08-02T18:50:50.667Z,-84
2022-08-02T18:53:28.002Z,-84
2022-08-02T18:56:08.344Z,-85
2022-08-02T18:58:38.190Z,-85
2022-08-02T19:01:15.012Z,-85
2022-08-02T19:03:55.159Z,-86
2022-08-02T19:06:27.647Z,-84
2022-08-02T19:09:10.376Z,-85
2022-08-02T19:11:47.960Z,-85
2022-08-02T19:14:24.458Z,-85
2022-08-02T19:16:57.993Z,-85
2022-08-02T19:19:28.926Z,-84
2022-08-02T19:22:18.872Z,-84
2022-08-02T19:24:51.889Z,-85
2022-08-02T19:27:26.064Z,-84
2022-08-02T19:30:03.261Z,-83
2022-08-02T19:32:42.563Z,-84
2022-08-02T19:35:30.804Z,-84
2022-08-02T19:38:11.477Z,-84
2022-08-02T19:40:42.285Z,-83
2022-08-02T19:44:25.847Z,-83
2022-08-02T19:46:02.700Z,-83
2022-08-02T19:48:31.226Z,-84
2022-08-02T19:51:01.501Z,-84
2022-08-02T19:53:47.502Z,-83
2022-08-02T19:56:20.406Z,-84
2022-08-02T19:58:51.533Z,-83
2022-08-02T20:01:36.609Z,-84
2022-08-02T20:04:07.299Z,-84
2022-08-02T20:06:45.505Z,-84
2022-08-02T20:09:16.989Z,-84
2022-08-02T20:11:54.005Z,-84
2022-08-02T20:14:26.979Z,-84
2022-08-02T20:16:58.410Z,-83
2022-08-02T20:19:28.835Z,-83
2022-08-02T20:22:00.638Z,-83
2022-08-02T20:24:30.149Z,-84
2022-08-02T20:26:59.768Z,-83
2022-08-02T20:29:45.233Z,-84
2022-08-02T20:32:23.692Z,-84
2022-08-02T20:34:53.337Z,-83
2022-08-02T20:37:56.006Z,-84
2022-08-02T20:40:16.764Z,-84
2022-08-02T20:42:48.105Z,-84
2022-08-02T20:45:17.165Z,-84
2022-08-02T20:47:50.847Z,-83
2022-08-02T20:50:38.128Z,-83
2022-08-02T20:53:08.578Z,-84
2022-08-02T20:55:55.030Z,-83
2022-08-02T20:58:26.852Z,-83
2022-08-02T21:00:59.206Z,-84
2022-08-02T21:03:32.228Z,-84
2022-08-02T21:06:09.472Z,-84
2022-08-02T21:08:38.344Z,-84
2022-08-02T21:11:09.622Z,-84
2022-08-02T21:13:47.198Z,-84
2022-08-02T21:16:29.684Z,-84
2022-08-02T21:19:00.528Z,-84
2022-08-02T21:21:29.816Z,-83
2022-08-02T21:24:01.442Z,-83
2022-08-02T21:26:31.278Z,-84
2022-08-02T21:31:51.200Z,-84
2022-08-02T21:34:22.531Z,-83
2022-08-02T21:36:55.982Z,-83
2022-08-02T21:39:25.123Z,-84
2022-08-02T21:41:53.609Z,-83
2022-08-02T21:44:23.894Z,-83
2022-08-02T21:46:54.871Z,-83
2022-08-02T21:50:09.399Z,-83
2022-08-02T21:52:16.512Z,-82
2022-08-02T21:54:45.921Z,-83
2022-08-02T21:57:16.847Z,-83
2022-08-02T21:59:47.042Z,-82
2022-08-02T22:02:18.003Z,-83
2022-08-02T22:04:48.535Z,-83
2022-08-02T22:07:23.877Z,-82
2022-08-02T22:12:43.273Z,-83
2022-08-02T22:15:13.411Z,-83
2022-08-02T22:17:53.293Z,-83
2022-08-02T22:20:29.977Z,-83
2022-08-02T22:22:58.418Z,-83
2022-08-02T22:25:37.368Z,-83
2022-08-02T22:28:38.655Z,-83
2022-08-02T22:30:58.243Z,-83
2022-08-02T22:33:47.308Z,-82
2022-08-02T22:36:31.888Z,-83
2022-08-02T22:39:02.368Z,-83
2022-08-02T22:42:01.295Z,-84
2022-08-02T22:44:20.585Z,-83
2022-08-02T22:46:50.001Z,-83
2022-08-02T22:49:37.025Z,-83
2022-08-02T22:52:07.770Z,-83
2022-08-02T22:54:36.354Z,-83
2022-08-02T22:57:06.549Z,-83
2022-08-02T22:58:35.065Z,-84
2022-08-02T22:59:02.909Z,-83
2022-08-02T22:59:40.749Z,-82
2022-08-02T23:02:10.332Z,-83
2022-08-02T23:04:39.171Z,-84
2022-08-02T23:07:09.033Z,-83
2022-08-02T23:09:37.786Z,-83
2022-08-02T23:12:06.986Z,-83
2022-08-02T23:14:37.163Z,-83
2022-08-02T23:17:23.044Z,-83
2022-08-02T23:19:54.091Z,-82
2022-08-02T23:22:30.112Z,-83
2022-08-02T23:25:02.346Z,-83
2022-08-02T23:27:31.894Z,-83
2022-08-02T23:30:01.223Z,-82
2022-08-02T23:32:30.398Z,-83
2022-08-02T23:34:59.505Z,-83
2022-08-02T23:37:29.290Z,-83
2022-08-02T23:40:31.389Z,-82
2022-08-02T23:43:13.281Z,-83
2022-08-02T23:45:45.000Z,-83
2022-08-02T23:48:13.538Z,-83
2022-08-02T23:50:42.081Z,-83
2022-08-02T23:53:11.899Z,-83
2022-08-02T23:55:40.308Z,-83
2022-08-02T23:58:08.755Z,-83
